Time;durP1;ratioP1;P1;durP2;ratioP2;P2;SDS_P1;SDS_P2;PMS_P1;PMS_P2;Temp;Humidity;BMP_temperature;BMP_pressure;BME280_temperature;BME280_humidity;BME280_pressure;Samples;Min_cycle;Max_cycle;Signal;HPM_P1;HPM_P2
2021/05/16 00:01:41;;;;;;;0.83;0.60;;;;;;;;;;4981730;28;20201;-83
2021/05/16 00:04:45;;;;;;;1.17;0.60;;;;;;;;;;4981989;28;20202;-82
2021/05/16 00:07:51;;;;;;;1.60;0.60;;;;;;;;;;4982053;28;20206;-82
2021/05/16 00:10:55;;;;;;;1.97;0.70;;;;;;;;;;4993550;28;20630;-82
2021/05/16 00:13:59;;;;;;;1.37;0.70;;;;;;;;;;4993290;28;20198;-82
2021/05/16 00:17:04;;;;;;;2.30;0.70;;;;;;;;;;4992898;28;20217;-83
2021/05/16 00:20:14;;;;;;;3.03;0.77;;;;;;;;;;4981800;28;20198;-82
2021/05/16 00:23:18;;;;;;;1.27;0.67;;;;;;;;;;4994958;28;20516;-82
2021/05/16 00:26:22;;;;;;;2.20;0.80;;;;;;;;;;4996807;28;20700;-83
2021/05/16 00:29:26;;;;;;;3.23;0.90;;;;;;;;;;4996928;28;20210;-82
2021/05/16 00:32:30;;;;;;;2.83;0.80;;;;;;;;;;4985247;28;20186;-82
2021/05/16 00:35:34;;;;;;;1.10;0.60;;;;;;;;;;4996578;28;20213;-82
2021/05/16 00:38:58;;;;;;;2.57;0.60;;;;;;;;;;4997753;28;20194;-82
2021/05/16 00:42:03;;;;;;;3.30;0.73;;;;;;;;;;4996777;28;20182;-82
2021/05/16 00:45:13;;;;;;;2.10;0.70;;;;;;;;;;4974254;28;20178;-82
2021/05/16 00:48:20;;;;;;;0.83;0.53;;;;;;;;;;4985065;28;20210;-82
2021/05/16 00:51:25;;;;;;;0.97;0.50;;;;;;;;;;4985113;28;20182;-82
2021/05/16 00:54:29;;;;;;;1.83;0.60;;;;;;;;;;4984671;28;20542;-82
2021/05/16 00:57:33;;;;;;;1.20;0.70;;;;;;;;;;4973408;28;20222;-82
2021/05/16 01:00:41;;;;;;;1.57;0.73;;;;;;;;;;4973796;28;20629;-82
2021/05/16 01:03:53;;;;;;;1.97;0.70;;;;;;;;;;4985420;28;20183;-82
2021/05/16 01:06:58;;;;;;;2.63;0.90;;;;;;;;;;4995585;28;20214;-82
2021/05/16 01:10:04;;;;;;;1.37;0.73;;;;;;;;;;4985170;28;20183;-82
2021/05/16 01:13:11;;;;;;;1.63;0.70;;;;;;;;;;4985076;28;20617;-82
2021/05/16 01:16:16;;;;;;;1.93;0.80;;;;;;;;;;4995801;28;20217;-82
2021/05/16 01:19:21;;;;;;;3.03;0.70;;;;;;;;;;4974351;28;20198;-82
2021/05/16 01:22:26;;;;;;;1.97;0.70;;;;;;;;;;4995597;28;20194;-82
2021/05/16 01:25:38;;;;;;;2.23;0.90;;;;;;;;;;4973167;28;20178;-82
2021/05/16 01:28:44;;;;;;;2.97;0.80;;;;;;;;;;4995494;28;20214;-82
2021/05/16 01:31:49;;;;;;;2.93;0.83;;;;;;;;;;4984507;28;20178;-82
2021/05/16 01:34:53;;;;;;;3.27;0.77;;;;;;;;;;4983548;28;20202;-82
2021/05/16 01:37:58;;;;;;;1.77;0.90;;;;;;;;;;4972994;28;20194;-82
2021/05/16 01:41:04;;;;;;;1.40;0.80;;;;;;;;;;4984138;28;20178;-82
2021/05/16 01:44:14;;;;;;;3.43;0.80;;;;;;;;;;4984290;28;20183;-82
2021/05/16 01:47:18;;;;;;;2.17;0.80;;;;;;;;;;4984080;28;20209;-82
2021/05/16 01:50:28;;;;;;;2.67;1.00;;;;;;;;;;4995317;28;20511;-82
2021/05/16 01:53:34;;;;;;;3.90;0.83;;;;;;;;;;4984047;28;20186;-82
2021/05/16 01:56:39;;;;;;;3.17;1.20;;;;;;;;;;4983504;28;20225;-82
2021/05/16 01:59:43;;;;;;;2.63;1.30;;;;;;;;;;4983626;28;20245;-82
2021/05/16 02:02:48;;;;;;;2.83;1.10;;;;;;;;;;4983855;28;20514;-82
2021/05/16 02:06:00;;;;;;;2.43;1.03;;;;;;;;;;4984365;28;20226;-83
2021/05/16 02:09:05;;;;;;;1.40;1.23;;;;;;;;;;4972489;28;20213;-82
2021/05/16 02:12:10;;;;;;;2.33;0.90;;;;;;;;;;4994571;28;20190;-82
2021/05/16 02:15:15;;;;;;;2.37;0.93;;;;;;;;;;4994851;28;20186;-83
2021/05/16 02:18:21;;;;;;;4.00;0.90;;;;;;;;;;4972804;28;20179;-82
2021/05/16 02:21:26;;;;;;;3.90;1.57;;;;;;;;;;4994389;28;20178;-82
2021/05/16 02:24:31;;;;;;;2.27;1.00;;;;;;;;;;4983404;28;20182;-82
2021/05/16 02:27:43;;;;;;;2.53;0.80;;;;;;;;;;4994074;28;20198;-83
2021/05/16 02:30:48;;;;;;;4.20;0.90;;;;;;;;;;4972147;28;20194;-82
2021/05/16 02:33:53;;;;;;;3.17;1.00;;;;;;;;;;4983005;28;20629;-82
2021/05/16 02:36:57;;;;;;;1.77;0.80;;;;;;;;;;4994142;28;20213;-83
2021/05/16 02:40:03;;;;;;;1.63;0.70;;;;;;;;;;4982858;28;20202;-83
2021/05/16 02:43:08;;;;;;;1.87;1.10;;;;;;;;;;4971895;28;20198;-82
2021/05/16 02:46:13;;;;;;;1.90;1.00;;;;;;;;;;4993874;28;20214;-82
2021/05/16 02:49:17;;;;;;;1.13;0.90;;;;;;;;;;4993988;28;20202;-82
2021/05/16 02:52:21;;;;;;;1.97;0.77;;;;;;;;;;4971547;28;20178;-82
2021/05/16 02:55:25;;;;;;;4.00;0.87;;;;;;;;;;4971688;28;20625;-83
2021/05/16 02:58:30;;;;;;;1.10;0.73;;;;;;;;;;4971873;28;20182;-83
2021/05/16 03:01:35;;;;;;;2.10;0.90;;;;;;;;;;4993853;28;20182;-83
2021/05/16 03:04:39;;;;;;;1.80;0.80;;;;;;;;;;4982626;28;20182;-82
2021/05/16 03:07:44;;;;;;;2.23;0.97;;;;;;;;;;4971691;28;20534;-82
2021/05/16 03:10:48;;;;;;;2.93;1.07;;;;;;;;;;4982722;28;20174;-82
2021/05/16 03:13:53;;;;;;;2.57;1.10;;;;;;;;;;4971405;28;20183;-82
2021/05/16 03:17:05;;;;;;;2.27;0.77;;;;;;;;;;4982153;28;20222;-83
2021/05/16 03:20:10;;;;;;;2.83;1.00;;;;;;;;;;4993535;28;20178;-82
2021/05/16 03:23:15;;;;;;;1.13;0.80;;;;;;;;;;4982317;28;20182;-82
2021/05/16 03:26:20;;;;;;;1.30;0.77;;;;;;;;;;4993412;28;20222;-82
2021/05/16 03:29:25;;;;;;;1.80;0.73;;;;;;;;;;4994112;28;20665;-82
2021/05/16 03:32:29;;;;;;;2.27;1.03;;;;;;;;;;4982250;28;20637;-82
2021/05/16 03:35:33;;;;;;;1.13;0.70;;;;;;;;;;4971121;28;20626;-83
2021/05/16 03:38:37;;;;;;;4.90;0.90;;;;;;;;;;4982469;28;20186;-82
2021/05/16 03:41:42;;;;;;;1.50;0.87;;;;;;;;;;4993290;28;20225;-82
2021/05/16 03:44:46;;;;;;;1.73;0.90;;;;;;;;;;4993580;28;20190;-82
2021/05/16 03:47:50;;;;;;;1.80;0.87;;;;;;;;;;4993480;28;20190;-83
2021/05/16 03:50:54;;;;;;;1.90;0.60;;;;;;;;;;4982284;28;20178;-82
2021/05/16 03:53:58;;;;;;;2.87;1.13;;;;;;;;;;4982225;28;20182;-82
2021/05/16 03:57:04;;;;;;;1.13;0.90;;;;;;;;;;4993430;28;20226;-83
2021/05/16 04:00:09;;;;;;;2.13;0.70;;;;;;;;;;4985811;28;20626;-82
2021/05/16 04:03:16;;;;;;;2.13;0.80;;;;;;;;;;4996999;28;20178;-82
2021/05/16 04:06:20;;;;;;;1.47;0.60;;;;;;;;;;4996949;28;20553;-82
2021/05/16 04:09:24;;;;;;;1.50;0.87;;;;;;;;;;4985630;28;20210;-82
2021/05/16 04:12:28;;;;;;;1.37;0.60;;;;;;;;;;4985692;28;20178;-82
2021/05/16 04:15:32;;;;;;;2.40;0.80;;;;;;;;;;4985738;28;20183;-83
2021/05/16 04:18:38;;;;;;;2.40;0.83;;;;;;;;;;4974343;28;20201;-82
2021/05/16 04:21:42;;;;;;;2.87;0.80;;;;;;;;;;4985921;28;20202;-82
2021/05/16 04:24:46;;;;;;;1.33;0.90;;;;;;;;;;4996531;28;20198;-82
2021/05/16 04:27:51;;;;;;;1.60;0.60;;;;;;;;;;4974564;28;20540;-82
2021/05/16 04:30:55;;;;;;;1.27;0.60;;;;;;;;;;4985004;28;20272;-82
2021/05/16 04:33:59;;;;;;;2.27;0.70;;;;;;;;;;4997566;28;20178;-82
2021/05/16 04:37:04;;;;;;;2.60;0.70;;;;;;;;;;4974444;28;20565;-82
2021/05/16 04:40:08;;;;;;;4.10;0.80;;;;;;;;;;4974489;28;20174;-82
2021/05/16 04:43:15;;;;;;;2.87;0.80;;;;;;;;;;4974088;28;20183;-82
2021/05/16 04:46:19;;;;;;;1.17;0.60;;;;;;;;;;4984879;28;20210;-82
2021/05/16 04:49:24;;;;;;;2.07;0.70;;;;;;;;;;4995816;28;20213;-82
2021/05/16 04:52:28;;;;;;;1.80;0.80;;;;;;;;;;4996145;28;20186;-82
2021/05/16 04:55:32;;;;;;;2.87;0.80;;;;;;;;;;4995707;28;20186;-83
2021/05/16 04:58:37;;;;;;;1.07;0.73;;;;;;;;;;5033043;23;20234;-74
2021/05/16 05:01:41;;;;;;;4.67;0.70;;;;;;;;;;4995262;28;20230;-74
2021/05/16 05:04:46;;;;;;;2.50;0.87;;;;;;;;;;4984212;28;20198;-74
2021/05/16 05:07:50;;;;;;;2.23;0.67;;;;;;;;;;5015745;28;20205;-74
2021/05/16 05:10:54;;;;;;;1.37;0.67;;;;;;;;;;5014841;28;20656;-74
2021/05/16 05:13:58;;;;;;;1.30;0.73;;;;;;;;;;5015963;28;20189;-74
2021/05/16 05:17:02;;;;;;;1.07;0.60;;;;;;;;;;5016200;28;20182;-74
2021/05/16 05:20:08;;;;;;;1.20;0.70;;;;;;;;;;5004090;28;20620;-74
2021/05/16 05:23:13;;;;;;;2.47;0.60;;;;;;;;;;4975650;28;20234;-74
2021/05/16 05:26:16;;;;;;;1.27;0.63;;;;;;;;;;4976577;28;20183;-74
2021/05/16 05:29:20;;;;;;;2.07;0.70;;;;;;;;;;4976874;28;20207;-74
2021/05/16 05:32:25;;;;;;;1.43;0.70;;;;;;;;;;4964371;28;20218;-74
2021/05/16 05:35:29;;;;;;;2.80;0.60;;;;;;;;;;4976583;28;20178;-74
2021/05/16 05:38:33;;;;;;;2.07;1.10;;;;;;;;;;4976196;28;20187;-74
2021/05/16 05:41:37;;;;;;;2.47;0.80;;;;;;;;;;4976420;28;20226;-74
2021/05/16 05:44:41;;;;;;;1.00;0.70;;;;;;;;;;4975621;28;20191;-74
2021/05/16 05:47:46;;;;;;;1.03;0.60;;;;;;;;;;4976001;28;20186;-74
2021/05/16 05:50:50;;;;;;;1.80;0.70;;;;;;;;;;4976471;28;20677;-75
2021/05/16 05:53:54;;;;;;;1.47;0.70;;;;;;;;;;4975968;28;20187;-74
2021/05/16 05:56:58;;;;;;;1.30;0.70;;;;;;;;;;4976503;28;20179;-74
2021/05/16 06:00:04;;;;;;;2.67;0.70;;;;;;;;;;4976110;28;20171;-75
2021/05/16 06:03:09;;;;;;;1.27;0.70;;;;;;;;;;4975737;28;20210;-74
2021/05/16 06:06:13;;;;;;;2.60;0.93;;;;;;;;;;4976237;28;20175;-74
2021/05/16 06:09:18;;;;;;;1.80;1.00;;;;;;;;;;4975515;28;20203;-74
2021/05/16 06:12:22;;;;;;;2.90;0.90;;;;;;;;;;4975213;28;20222;-74
2021/05/16 06:15:26;;;;;;;5.23;1.13;;;;;;;;;;4963584;28;20195;-74
2021/05/16 06:18:30;;;;;;;2.33;0.97;;;;;;;;;;4963569;28;20195;-74
2021/05/16 06:21:34;;;;;;;3.30;1.17;;;;;;;;;;4975536;28;20210;-74
2021/05/16 06:24:38;;;;;;;3.03;1.33;;;;;;;;;;4975806;28;20203;-74
2021/05/16 06:27:42;;;;;;;2.43;1.00;;;;;;;;;;4975576;28;20677;-74
2021/05/16 06:30:47;;;;;;;3.77;0.90;;;;;;;;;;4975153;28;20223;-74
2021/05/16 06:33:51;;;;;;;1.63;0.73;;;;;;;;;;4975191;28;20183;-74
2021/05/16 06:36:55;;;;;;;3.67;0.90;;;;;;;;;;4963721;28;20526;-74
2021/05/16 06:39:59;;;;;;;3.57;1.10;;;;;;;;;;4975382;28;20179;-74
2021/05/16 06:43:05;;;;;;;2.27;1.40;;;;;;;;;;4975189;28;20218;-74
2021/05/16 06:46:10;;;;;;;1.50;0.80;;;;;;;;;;4975204;28;20199;-74
2021/05/16 06:49:14;;;;;;;2.80;0.90;;;;;;;;;;4975405;28;20179;-74
2021/05/16 06:52:22;;;;;;;2.60;1.00;;;;;;;;;;4974865;28;20218;-75
2021/05/16 06:55:26;;;;;;;2.70;0.90;;;;;;;;;;4975375;28;20622;-74
2021/05/16 06:58:31;;;;;;;1.90;1.03;;;;;;;;;;4963003;28;20198;-74
2021/05/16 07:01:35;;;;;;;0.90;0.70;;;;;;;;;;4974045;28;20562;-74
2021/05/16 07:04:42;;;;;;;3.87;1.30;;;;;;;;;;4975024;28;20182;-74
2021/05/16 07:07:46;;;;;;;2.07;1.00;;;;;;;;;;4975172;28;20204;-74
2021/05/16 07:10:51;;;;;;;2.30;1.20;;;;;;;;;;4974268;28;20206;-74
2021/05/16 07:13:54;;;;;;;3.67;0.90;;;;;;;;;;4975119;28;20187;-74
2021/05/16 07:16:59;;;;;;;2.63;0.80;;;;;;;;;;4974701;28;20179;-75
2021/05/16 07:20:03;;;;;;;3.10;0.90;;;;;;;;;;4978904;28;20190;-75
2021/05/16 07:23:07;;;;;;;1.37;0.73;;;;;;;;;;4962764;28;20210;-74
2021/05/16 07:26:13;;;;;;;3.50;1.00;;;;;;;;;;4974619;28;20195;-75
2021/05/16 07:29:17;;;;;;;3.90;1.00;;;;;;;;;;4975389;28;20194;-74
2021/05/16 07:32:21;;;;;;;5.37;0.87;;;;;;;;;;4973593;28;20206;-74
2021/05/16 07:35:25;;;;;;;5.03;0.70;;;;;;;;;;4970488;28;20206;-75
2021/05/16 07:38:30;;;;;;;1.87;1.10;;;;;;;;;;4981316;28;20198;-75
2021/05/16 07:41:34;;;;;;;3.47;1.00;;;;;;;;;;4981579;28;20214;-75
2021/05/16 07:44:39;;;;;;;3.37;1.00;;;;;;;;;;4987964;28;20202;-76
2021/05/16 07:47:43;;;;;;;2.23;0.90;;;;;;;;;;4973121;28;20956;-76
2021/05/16 07:50:47;;;;;;;1.70;0.70;;;;;;;;;;4958526;28;20579;-75
2021/05/16 07:53:52;;;;;;;3.27;1.10;;;;;;;;;;4970518;28;20692;-75
2021/05/16 07:56:58;;;;;;;4.03;0.90;;;;;;;;;;4967865;28;20198;-75
2021/05/16 08:00:05;;;;;;;3.30;1.03;;;;;;;;;;4970749;28;20195;-75
2021/05/16 08:03:18;;;;;;;2.70;0.83;;;;;;;;;;4970368;28;20774;-76
2021/05/16 08:06:22;;;;;;;4.57;1.20;;;;;;;;;;4989563;28;20186;-76
2021/05/16 08:09:26;;;;;;;3.73;0.93;;;;;;;;;;4989153;28;20193;-75
2021/05/16 08:12:31;;;;;;;2.67;1.20;;;;;;;;;;4989716;28;20210;-75
2021/05/16 08:15:35;;;;;;;1.83;1.60;;;;;;;;;;4989899;28;20198;-76
2021/05/16 08:18:39;;;;;;;3.00;1.13;;;;;;;;;;4970464;28;20182;-75
2021/05/16 08:21:45;;;;;;;1.77;0.90;;;;;;;;;;4969098;28;20222;-75
2021/05/16 08:24:49;;;;;;;3.20;0.90;;;;;;;;;;4979066;28;20195;-75
2021/05/16 08:27:54;;;;;;;2.77;0.80;;;;;;;;;;4980786;28;20559;-75
2021/05/16 08:30:58;;;;;;;1.87;0.80;;;;;;;;;;4958062;28;20574;-75
2021/05/16 08:34:04;;;;;;;5.60;2.57;;;;;;;;;;4978828;28;20198;-74
2021/05/16 08:37:10;;;;;;;2.70;0.63;;;;;;;;;;4971614;28;20196;-75
2021/05/16 08:40:15;;;;;;;1.50;0.80;;;;;;;;;;4970770;28;20191;-74
2021/05/16 08:43:20;;;;;;;2.03;0.80;;;;;;;;;;4970704;28;20240;-74
2021/05/16 08:46:25;;;;;;;3.57;1.03;;;;;;;;;;4973781;28;20179;-75
2021/05/16 08:49:29;;;;;;;3.37;1.10;;;;;;;;;;4980665;28;20190;-75
2021/05/16 08:52:34;;;;;;;2.70;0.73;;;;;;;;;;4975017;28;20198;-73
2021/05/16 08:55:39;;;;;;;3.33;0.80;;;;;;;;;;4981422;28;20198;-73
2021/05/16 08:58:44;;;;;;;4.20;0.80;;;;;;;;;;4990888;28;20209;-73
2021/05/16 09:01:58;;;;;;;2.77;1.60;;;;;;;;;;4980750;28;20210;-74
2021/05/16 09:05:25;;;;;;;3.63;0.90;;;;;;;;;;4981581;28;20202;-74
2021/05/16 09:08:29;;;;;;;1.50;0.70;;;;;;;;;;4969854;28;20637;-74
2021/05/16 09:11:34;;;;;;;2.03;1.10;;;;;;;;;;4980189;28;20230;-74
2021/05/16 09:14:57;;;;;;;3.07;0.77;;;;;;;;;;4989896;28;20210;-74
2021/05/16 09:18:02;;;;;;;1.83;0.80;;;;;;;;;;4973304;28;20183;-74
2021/05/16 09:21:19;;;;;;;2.10;0.67;;;;;;;;;;4977674;28;20199;-73
2021/05/16 09:24:24;;;;;;;1.27;0.60;;;;;;;;;;4973091;28;20680;-74
2021/05/16 09:27:28;;;;;;;1.93;0.60;;;;;;;;;;4973115;28;20187;-74
2021/05/16 09:30:34;;;;;;;1.93;0.80;;;;;;;;;;4973028;28;20654;-74
2021/05/16 09:33:38;;;;;;;2.77;0.80;;;;;;;;;;4960502;28;20207;-74
2021/05/16 09:36:45;;;;;;;2.17;0.53;;;;;;;;;;4966023;28;20190;-74
2021/05/16 09:39:49;;;;;;;1.90;0.63;;;;;;;;;;4992196;28;20202;-74
2021/05/16 09:43:15;;;;;;;2.50;0.60;;;;;;;;;;4992025;28;20217;-75
2021/05/16 09:46:19;;;;;;;3.33;0.70;;;;;;;;;;4960791;28;20191;-75
2021/05/16 09:49:27;;;;;;;1.90;0.60;;;;;;;;;;4990069;28;20194;-75
2021/05/16 09:52:35;;;;;;;4.13;0.80;;;;;;;;;;4991852;28;20221;-75
2021/05/16 09:55:39;;;;;;;1.37;0.73;;;;;;;;;;4995607;28;20645;-75
2021/05/16 09:58:45;;;;;;;2.10;0.90;;;;;;;;;;4973542;28;20557;-74
2021/05/16 10:01:49;;;;;;;1.27;0.73;;;;;;;;;;4991046;28;20214;-74
2021/05/16 10:04:55;;;;;;;2.30;0.70;;;;;;;;;;4988350;28;20539;-74
2021/05/16 10:08:00;;;;;;;5.37;0.70;;;;;;;;;;5000956;28;20198;-74
2021/05/16 10:11:04;;;;;;;2.10;0.90;;;;;;;;;;4980858;28;20205;-75
2021/05/16 10:14:14;;;;;;;3.73;1.00;;;;;;;;;;4990958;28;20178;-74
2021/05/16 10:17:20;;;;;;;3.60;1.07;;;;;;;;;;4966717;28;20194;-74
2021/05/16 10:20:27;;;;;;;2.73;0.80;;;;;;;;;;4992625;28;20209;-74
2021/05/16 10:23:37;;;;;;;3.40;0.90;;;;;;;;;;4986321;28;20199;-75
2021/05/16 10:26:42;;;;;;;1.20;0.70;;;;;;;;;;4987178;28;20210;-74
2021/05/16 10:30:02;;;;;;;2.47;0.70;;;;;;;;;;4990902;28;20202;-75
2021/05/16 10:33:27;;;;;;;3.67;1.00;;;;;;;;;;4974115;28;20559;-74
2021/05/16 10:36:43;;;;;;;3.20;0.70;;;;;;;;;;4972486;28;20195;-74
2021/05/16 10:39:48;;;;;;;2.40;0.77;;;;;;;;;;4969581;28;20198;-75
2021/05/16 10:42:55;;;;;;;1.57;0.73;;;;;;;;;;4978722;28;20573;-75
2021/05/16 10:45:59;;;;;;;5.37;1.17;;;;;;;;;;4970596;28;20205;-75
2021/05/16 10:49:23;;;;;;;4.97;0.83;;;;;;;;;;4948496;28;20202;-75
2021/05/16 10:52:29;;;;;;;3.80;1.03;;;;;;;;;;4960684;28;20223;-76
2021/05/16 10:55:42;;;;;;;7.23;1.47;;;;;;;;;;4979863;28;20194;-78
2021/05/16 10:58:48;;;;;;;5.10;1.20;;;;;;;;;;4962936;28;20222;-77
2021/05/16 11:01:53;;;;;;;3.63;1.00;;;;;;;;;;4971411;28;20563;-76
2021/05/16 11:04:57;;;;;;;1.90;0.90;;;;;;;;;;4972460;28;20190;-76
2021/05/16 11:08:01;;;;;;;4.27;1.10;;;;;;;;;;4960781;28;20544;-75
2021/05/16 11:11:29;;;;;;;1.73;0.70;;;;;;;;;;4967669;28;20194;-75
2021/05/16 11:14:36;;;;;;;1.43;0.70;;;;;;;;;;4991759;28;20534;-75
2021/05/16 11:17:41;;;;;;;1.87;0.60;;;;;;;;;;4965341;28;20198;-75
2021/05/16 11:20:53;;;;;;;1.97;0.90;;;;;;;;;;4971591;28;20587;-75
2021/05/16 11:23:57;;;;;;;2.30;0.77;;;;;;;;;;4998571;28;20201;-75
2021/05/16 11:27:13;;;;;;;2.80;0.77;;;;;;;;;;4970535;28;20194;-74
2021/05/16 11:30:21;;;;;;;3.43;1.10;;;;;;;;;;4976448;28;20220;-74
2021/05/16 11:33:33;;;;;;;2.37;0.80;;;;;;;;;;4990078;28;20605;-74
2021/05/16 11:36:39;;;;;;;6.40;1.03;;;;;;;;;;4990465;28;20205;-74
2021/05/16 11:39:44;;;;;;;4.77;1.00;;;;;;;;;;4978434;28;20186;-74
2021/05/16 11:42:56;;;;;;;3.20;0.90;;;;;;;;;;4959404;28;20226;-74
2021/05/16 11:46:02;;;;;;;4.97;1.60;;;;;;;;;;4978329;28;20203;-74
2021/05/16 11:49:08;;;;;;;8.43;5.17;;;;;;;;;;4971274;28;20553;-74
2021/05/16 11:52:12;;;;;;;5.73;2.13;;;;;;;;;;4979389;28;20225;-74
2021/05/16 11:55:16;;;;;;;3.13;1.00;;;;;;;;;;4988856;28;20198;-74
2021/05/16 11:58:22;;;;;;;2.37;0.97;;;;;;;;;;4990049;28;20210;-74
2021/05/16 12:01:29;;;;;;;2.33;0.70;;;;;;;;;;4989762;28;20225;-74
2021/05/16 12:04:40;;;;;;;3.70;1.20;;;;;;;;;;4973712;28;20186;-74
2021/05/16 12:07:43;;;;;;;9.37;1.30;;;;;;;;;;4969288;28;20198;-73
2021/05/16 12:11:15;;;;;;;10.47;1.77;;;;;;;;;;4990072;28;20190;-77
2021/05/16 12:14:21;;;;;;;3.77;1.07;;;;;;;;;;4979979;28;20202;-77
2021/05/16 12:17:30;;;;;;;2.27;0.80;;;;;;;;;;4989364;28;20963;-76
2021/05/16 12:20:34;;;;;;;2.47;0.60;;;;;;;;;;4992379;28;20190;-75
2021/05/16 12:23:39;;;;;;;3.97;1.10;;;;;;;;;;4951092;28;20638;-75
2021/05/16 12:26:43;;;;;;;2.10;0.73;;;;;;;;;;4967525;28;20198;-75
2021/05/16 12:29:49;;;;;;;2.63;0.80;;;;;;;;;;4993490;28;20198;-74
2021/05/16 12:32:54;;;;;;;6.13;0.87;;;;;;;;;;4979680;28;20226;-74
2021/05/16 12:35:58;;;;;;;1.97;0.70;;;;;;;;;;4964583;28;20724;-74
2021/05/16 12:39:03;;;;;;;2.10;0.70;;;;;;;;;;4962186;28;20515;-75
2021/05/16 12:42:34;;;;;;;3.87;0.97;;;;;;;;;;4973885;28;20210;-74
2021/05/16 12:45:39;;;;;;;2.37;0.80;;;;;;;;;;4980280;28;20202;-75
2021/05/16 12:48:53;;;;;;;2.70;0.77;;;;;;;;;;4974240;28;20206;-75
2021/05/16 12:51:59;;;;;;;1.40;0.60;;;;;;;;;;4973543;28;20226;-73
2021/05/16 12:55:05;;;;;;;2.60;1.27;;;;;;;;;;4993258;28;20206;-74
2021/05/16 12:58:19;;;;;;;5.13;0.80;;;;;;;;;;4992293;28;20201;-74
2021/05/16 13:01:26;;;;;;;3.67;1.43;;;;;;;;;;4971945;28;20213;-73
2021/05/16 13:04:30;;;;;;;4.60;1.97;;;;;;;;;;4973607;28;20195;-73
2021/05/16 13:07:55;;;;;;;3.63;0.70;;;;;;;;;;4992000;28;20198;-75
2021/05/16 13:11:00;;;;;;;2.17;0.80;;;;;;;;;;4988810;28;20784;-75
2021/05/16 13:14:05;;;;;;;2.00;0.70;;;;;;;;;;4976095;28;20183;-77
2021/05/16 13:17:17;;;;;;;1.87;0.60;;;;;;;;;;4977223;28;20194;-74
2021/05/16 13:20:21;;;;;;;1.73;0.63;;;;;;;;;;4996339;28;20198;-74
2021/05/16 13:23:28;;;;;;;2.97;0.70;;;;;;;;;;4992129;28;20540;-74
2021/05/16 13:26:56;;;;;;;4.07;0.87;;;;;;;;;;4968178;28;20673;-74
2021/05/16 13:30:06;;;;;;;2.10;0.60;;;;;;;;;;4978330;28;20207;-74
2021/05/16 13:33:11;;;;;;;1.60;0.70;;;;;;;;;;4960463;28;20222;-74
2021/05/16 13:36:17;;;;;;;2.47;0.80;;;;;;;;;;4961089;28;20199;-74
2021/05/16 13:39:23;;;;;;;4.07;0.80;;;;;;;;;;4973755;28;20198;-75
2021/05/16 13:42:27;;;;;;;3.97;1.13;;;;;;;;;;4946634;28;20213;-74
2021/05/16 13:45:32;;;;;;;1.23;0.60;;;;;;;;;;4969242;28;20182;-74
2021/05/16 13:48:37;;;;;;;2.77;1.40;;;;;;;;;;4991377;28;20182;-74
2021/05/16 13:51:41;;;;;;;3.87;1.93;;;;;;;;;;4960681;28;20222;-74
2021/05/16 13:54:45;;;;;;;1.47;0.77;;;;;;;;;;4967251;28;20197;-75
2021/05/16 13:57:50;;;;;;;2.90;1.30;;;;;;;;;;4991546;28;20210;-74
2021/05/16 14:00:58;;;;;;;4.40;1.67;;;;;;;;;;4980377;28;20190;-74
2021/05/16 14:04:03;;;;;;;27.23;2.80;;;;;;;;;;4980111;28;20194;-75
2021/05/16 14:07:08;;;;;;;2.00;0.80;;;;;;;;;;4970360;28;20198;-75
2021/05/16 14:10:13;;;;;;;2.30;0.73;;;;;;;;;;4972783;28;20551;-75
2021/05/16 14:13:17;;;;;;;2.20;0.73;;;;;;;;;;4938270;28;20227;-76
2021/05/16 14:16:21;;;;;;;2.67;0.80;;;;;;;;;;4972449;28;20203;-77
2021/05/16 14:19:26;;;;;;;1.70;0.90;;;;;;;;;;4963438;28;20198;-76
2021/05/16 14:22:30;;;;;;;5.27;0.80;;;;;;;;;;4979605;28;20688;-77
2021/05/16 14:25:34;;;;;;;2.77;1.00;;;;;;;;;;4991347;28;20182;-76
2021/05/16 14:28:39;;;;;;;1.47;0.73;;;;;;;;;;4979750;28;20186;-76
2021/05/16 14:31:44;;;;;;;2.33;0.90;;;;;;;;;;4955911;28;20218;-75
2021/05/16 14:34:49;;;;;;;2.40;0.70;;;;;;;;;;4949640;28;20642;-73
2021/05/16 14:37:54;;;;;;;2.57;0.60;;;;;;;;;;4951820;28;20202;-74
2021/05/16 14:41:04;;;;;;;1.27;0.80;;;;;;;;;;4952566;28;20554;-75
2021/05/16 14:44:26;;;;;;;1.43;0.70;;;;;;;;;;4977568;28;20661;-75
2021/05/16 14:47:30;;;;;;;1.97;1.00;;;;;;;;;;4975191;28;20729;-75
2021/05/16 14:53:45;;;;;;;1.37;0.73;;;;;;;;;;4972264;28;20562;-75
2021/05/16 14:56:50;;;;;;;2.93;0.60;;;;;;;;;;4971521;28;20681;-75
2021/05/16 14:59:54;;;;;;;2.07;0.60;;;;;;;;;;4959352;28;20182;-75
2021/05/16 15:02:59;;;;;;;2.30;0.70;;;;;;;;;;4980795;28;20206;-73
2021/05/16 15:06:03;;;;;;;2.27;0.83;;;;;;;;;;4959504;28;20535;-75
2021/05/16 15:09:08;;;;;;;2.80;1.00;;;;;;;;;;4985302;28;20190;-74
2021/05/16 15:12:13;;;;;;;2.73;0.87;;;;;;;;;;4958820;28;20226;-75
2021/05/16 15:15:18;;;;;;;2.67;0.87;;;;;;;;;;4987707;28;20534;-75
2021/05/16 15:18:23;;;;;;;4.03;0.87;;;;;;;;;;4977248;28;20186;-75
2021/05/16 15:21:27;;;;;;;5.57;0.77;;;;;;;;;;4963071;28;20221;-75
2021/05/16 15:24:32;;;;;;;2.10;0.90;;;;;;;;;;4984576;28;20522;-75
2021/05/16 15:27:36;;;;;;;2.87;0.90;;;;;;;;;;4978764;28;20201;-75
2021/05/16 15:30:40;;;;;;;1.57;0.90;;;;;;;;;;4978537;28;20182;-75
2021/05/16 15:33:44;;;;;;;3.50;1.30;;;;;;;;;;4968052;28;20202;-73
2021/05/16 15:36:49;;;;;;;1.63;0.90;;;;;;;;;;4987156;28;20186;-73
2021/05/16 15:39:54;;;;;;;2.20;0.80;;;;;;;;;;4958973;28;20179;-73
2021/05/16 15:42:58;;;;;;;4.73;0.80;;;;;;;;;;4943895;28;20222;-76
2021/05/16 15:46:04;;;;;;;2.10;0.97;;;;;;;;;;4977934;28;20178;-73
2021/05/16 15:49:08;;;;;;;3.80;1.00;;;;;;;;;;4970724;28;20179;-73
2021/05/16 15:52:12;;;;;;;3.47;1.13;;;;;;;;;;4964849;28;20217;-75
2021/05/16 15:55:17;;;;;;;5.30;1.20;;;;;;;;;;4966581;28;20195;-74
2021/05/16 15:58:21;;;;;;;4.40;1.70;;;;;;;;;;4988774;28;20209;-74
2021/05/16 16:01:32;;;;;;;2.63;1.20;;;;;;;;;;4993394;28;20217;-74
2021/05/16 16:04:37;;;;;;;2.27;0.97;;;;;;;;;;4994038;28;20178;-73
2021/05/16 16:07:42;;;;;;;1.97;0.90;;;;;;;;;;4978692;28;20205;-74
2021/05/16 16:10:46;;;;;;;4.77;1.17;;;;;;;;;;4977665;28;20261;-74
2021/05/16 16:13:51;;;;;;;2.80;0.97;;;;;;;;;;4990881;28;20206;-73
2021/05/16 16:16:55;;;;;;;1.80;0.80;;;;;;;;;;4993720;28;20182;-74
2021/05/16 16:19:59;;;;;;;1.83;1.00;;;;;;;;;;4985007;28;20649;-73
2021/05/16 16:23:03;;;;;;;2.07;0.77;;;;;;;;;;4973602;28;20210;-73
2021/05/16 16:26:07;;;;;;;1.00;0.73;;;;;;;;;;4962053;28;20182;-74
2021/05/16 16:29:12;;;;;;;1.93;0.80;;;;;;;;;;4974053;28;20202;-73
2021/05/16 16:32:16;;;;;;;2.50;0.80;;;;;;;;;;4986117;28;20221;-73
2021/05/16 16:35:21;;;;;;;1.27;0.50;;;;;;;;;;4973804;28;20187;-73
2021/05/16 16:38:27;;;;;;;5.27;0.57;;;;;;;;;;4977031;28;20202;-74
2021/05/16 16:41:31;;;;;;;1.77;0.67;;;;;;;;;;4993094;28;20225;-73
2021/05/16 16:44:36;;;;;;;1.73;0.70;;;;;;;;;;4992447;28;20202;-73
2021/05/16 16:47:40;;;;;;;1.27;0.57;;;;;;;;;;4992882;28;20540;-73
2021/05/16 16:50:45;;;;;;;1.60;0.90;;;;;;;;;;4973553;28;20228;-73
2021/05/16 16:53:49;;;;;;;1.23;0.60;;;;;;;;;;4973689;28;20674;-74
2021/05/16 16:56:53;;;;;;;3.90;0.70;;;;;;;;;;4984627;28;20194;-73
2021/05/16 16:59:58;;;;;;;0.97;0.60;;;;;;;;;;4986196;28;20657;-73
2021/05/16 17:03:02;;;;;;;4.30;0.60;;;;;;;;;;4973196;28;20222;-73
2021/05/16 17:06:06;;;;;;;4.17;0.53;;;;;;;;;;4964257;28;20195;-73
2021/05/16 17:09:11;;;;;;;1.00;0.53;;;;;;;;;;4980385;28;20485;-72
2021/05/16 17:12:15;;;;;;;0.93;0.60;;;;;;;;;;4990832;28;20218;-73
2021/05/16 17:15:19;;;;;;;2.73;0.57;;;;;;;;;;4990427;28;20191;-72
2021/05/16 17:18:24;;;;;;;1.93;0.60;;;;;;;;;;4992368;28;20685;-73
2021/05/16 17:21:29;;;;;;;2.43;0.70;;;;;;;;;;4992075;28;20736;-73
2021/05/16 17:24:33;;;;;;;1.53;0.50;;;;;;;;;;4972830;28;20175;-73
2021/05/16 17:27:40;;;;;;;1.57;0.60;;;;;;;;;;4982822;28;20198;-73
2021/05/16 17:30:44;;;;;;;1.27;0.60;;;;;;;;;;4992519;28;20175;-74
2021/05/16 17:33:48;;;;;;;1.00;0.50;;;;;;;;;;4974912;28;20218;-74
2021/05/16 17:36:52;;;;;;;6.40;0.60;;;;;;;;;;4976631;28;20194;-72
2021/05/16 17:39:56;;;;;;;3.43;0.40;;;;;;;;;;4980136;28;20657;-73
2021/05/16 17:43:01;;;;;;;0.53;0.43;;;;;;;;;;4981659;28;20214;-73
2021/05/16 17:46:05;;;;;;;2.17;0.50;;;;;;;;;;4975723;28;20194;-73
2021/05/16 17:49:09;;;;;;;3.77;0.60;;;;;;;;;;4974703;28;20211;-73
2021/05/16 17:52:13;;;;;;;0.87;0.50;;;;;;;;;;4984018;28;20222;-73
2021/05/16 17:55:18;;;;;;;3.13;0.53;;;;;;;;;;4991707;28;20546;-73
2021/05/16 17:58:22;;;;;;;0.93;0.40;;;;;;;;;;4979507;28;20210;-72
2021/05/16 18:01:26;;;;;;;2.47;1.00;;;;;;;;;;4970590;28;20704;-73
2021/05/16 18:04:30;;;;;;;5.00;0.80;;;;;;;;;;4979579;28;20206;-73
2021/05/16 18:07:35;;;;;;;7.17;1.57;;;;;;;;;;4980843;28;20197;-74
2021/05/16 18:10:39;;;;;;;4.37;0.70;;;;;;;;;;4982528;28;20210;-73
2021/05/16 18:13:43;;;;;;;1.40;0.50;;;;;;;;;;4985755;28;20222;-72
2021/05/16 18:16:47;;;;;;;1.13;0.50;;;;;;;;;;4990443;28;20193;-74
2021/05/16 18:19:51;;;;;;;1.63;0.63;;;;;;;;;;4991623;28;20190;-73
2021/05/16 18:22:56;;;;;;;0.83;0.40;;;;;;;;;;4978439;28;20218;-73
2021/05/16 18:26:00;;;;;;;1.03;0.70;;;;;;;;;;4978483;28;20194;-73
2021/05/16 18:29:04;;;;;;;2.53;0.60;;;;;;;;;;4972016;28;20508;-72
2021/05/16 18:32:09;;;;;;;1.90;0.50;;;;;;;;;;4984132;28;20708;-73
2021/05/16 18:35:14;;;;;;;1.37;0.60;;;;;;;;;;4976752;28;20206;-75
2021/05/16 18:38:19;;;;;;;0.50;0.50;;;;;;;;;;4990888;28;20649;-73